Time;durP1;ratioP1;P1;durP2;ratioP2;P2;SDS_P1;SDS_P2;PMS_P1;PMS_P2;Temp;Humidity;BMP_temperature;BMP_pressure;BME280_temperature;BME280_humidity;BME280_pressure;Samples;Min_cycle;Max_cycle;Signal;HPM_P1;HPM_P2
2022/01/03 00:01:04;;;;;;;13.48;1.90;;;9.40;99.90;;;;;;4992638;28;20049;-88
2022/01/03 00:03:30;;;;;;;10.55;2.00;;;9.40;99.90;;;;;;4978604;28;20038;-89
2022/01/03 00:05:55;;;;;;;12.90;2.78;;;9.50;99.90;;;;;;4977148;28;20060;-89
2022/01/03 00:08:21;;;;;;;10.52;2.03;;;9.60;99.90;;;;;;4994355;28;20030;-89
2022/01/03 00:10:47;;;;;;;12.18;2.45;;;9.60;99.90;;;;;;4996100;28;20041;-88
2022/01/03 00:13:12;;;;;;;14.10;2.97;;;9.70;99.90;;;;;;4996455;28;20038;-89
2022/01/03 00:15:38;;;;;;;14.38;2.20;;;9.70;99.90;;;;;;5020518;28;20515;-89
2022/01/03 00:18:04;;;;;;;11.43;2.55;;;9.70;99.90;;;;;;5006170;28;20523;-88
2022/01/03 00:20:30;;;;;;;12.70;2.58;;;9.80;99.90;;;;;;5012822;28;20107;-88
2022/01/03 00:23:04;;;;;;;14.88;2.80;;;9.80;99.90;;;;;;5002733;28;20132;-88
2022/01/03 00:25:32;;;;;;;18.63;3.63;;;9.80;99.90;;;;;;4976675;28;20046;-89
2022/01/03 00:28:14;;;;;;;18.95;3.35;;;9.80;99.90;;;;;;4994306;28;20050;-89
2022/01/03 00:30:41;;;;;;;20.40;3.50;;;9.90;99.90;;;;;;4996683;28;20046;-89
2022/01/03 00:33:08;;;;;;;16.63;3.42;;;9.90;99.90;;;;;;4992726;28;20447;-88
2022/01/03 00:35:41;;;;;;;17.75;3.70;;;10.00;99.90;;;;;;5028538;28;20042;-88
2022/01/03 00:38:09;;;;;;;21.58;4.45;;;9.90;99.90;;;;;;5012672;28;20060;-88
2022/01/03 00:40:35;;;;;;;16.58;3.38;;;10.00;99.90;;;;;;5012120;28;20049;-88
2022/01/03 00:43:03;;;;;;;19.17;3.30;;;10.00;99.90;;;;;;5010721;28;20121;-88
2022/01/03 00:45:28;;;;;;;17.10;3.55;;;10.00;99.90;;;;;;5012352;28;20061;-88
2022/01/03 00:47:55;;;;;;;17.20;3.00;;;10.00;99.90;;;;;;4995391;28;20076;-88
2022/01/03 00:50:23;;;;;;;16.90;3.05;;;10.10;99.90;;;;;;5011981;28;20041;-89
2022/01/03 00:52:50;;;;;;;15.98;3.60;;;10.10;99.90;;;;;;5012412;28;20049;-89
2022/01/03 00:55:16;;;;;;;18.50;3.05;;;10.10;99.90;;;;;;5010278;28;20052;-89
2022/01/03 00:57:47;;;;;;;15.38;2.70;;;10.10;99.90;;;;;;4995869;28;20121;-88
2022/01/03 01:00:14;;;;;;;17.23;2.83;;;10.10;99.90;;;;;;5029027;28;20041;-88
2022/01/03 01:02:48;;;;;;;15.68;2.83;;;10.10;99.90;;;;;;4985509;28;20034;-88
2022/01/03 01:05:14;;;;;;;16.73;3.10;;;10.10;99.90;;;;;;4985791;28;20413;-88
2022/01/03 01:07:40;;;;;;;20.65;3.65;;;10.20;99.90;;;;;;4995504;28;20501;-88
2022/01/03 01:10:06;;;;;;;12.73;2.95;;;10.20;99.90;;;;;;5010167;28;20053;-88
2022/01/03 01:12:33;;;;;;;14.68;3.38;;;10.20;99.90;;;;;;4995647;28;20515;-88
2022/01/03 01:14:58;;;;;;;19.80;4.30;;;10.20;99.90;;;;;;4989663;28;20037;-88
2022/01/03 01:17:28;;;;;;;14.52;2.92;;;10.20;99.90;;;;;;5011691;28;20065;-89
2022/01/03 01:19:56;;;;;;;14.80;2.78;;;10.20;99.90;;;;;;5011103;28;20116;-88
2022/01/03 01:22:22;;;;;;;21.77;5.18;;;10.20;99.90;;;;;;4995346;28;20042;-88
2022/01/03 01:25:00;;;;;;;15.90;3.58;;;10.30;99.90;;;;;;5011297;28;20503;-88
2022/01/03 01:30:11;;;;;;;19.02;4.20;;;10.30;99.90;;;;;;5027771;28;20042;-88
2022/01/03 01:32:41;;;;;;;20.40;4.00;;;10.20;99.90;;;;;;5011380;28;20038;-88
2022/01/03 01:35:08;;;;;;;18.23;3.28;;;10.20;99.90;;;;;;5011032;28;20045;-88
2022/01/03 01:37:35;;;;;;;14.90;2.78;;;10.30;99.90;;;;;;5009333;28;20071;-88
2022/01/03 01:40:02;;;;;;;14.93;3.08;;;10.30;99.90;;;;;;4994952;28;20491;-88
2022/01/03 01:42:31;;;;;;;17.23;3.50;;;10.30;99.90;;;;;;4994391;28;20125;-88
2022/01/03 01:45:00;;;;;;;18.23;2.95;;;10.30;99.90;;;;;;5026823;28;20137;-88
2022/01/03 01:47:27;;;;;;;15.73;2.83;;;10.30;99.90;;;;;;4992984;28;20302;-89
2022/01/03 01:49:55;;;;;;;18.90;3.47;;;10.30;99.90;;;;;;5027378;28;20057;-89
2022/01/03 01:52:25;;;;;;;16.88;3.10;;;10.30;99.90;;;;;;5027181;28;20038;-88
2022/01/03 01:55:02;;;;;;;20.00;4.57;;;10.30;99.90;;;;;;4994169;28;20068;-88
2022/01/03 01:57:47;;;;;;;15.50;3.25;;;10.30;99.90;;;;;;5025916;28;20033;-88
2022/01/03 02:00:16;;;;;;;15.10;2.97;;;10.30;99.90;;;;;;5010772;28;20133;-88
2022/01/03 02:02:52;;;;;;;21.48;3.60;;;10.30;99.90;;;;;;5010003;28;20045;-88
2022/01/03 02:05:31;;;;;;;16.33;3.75;;;10.30;99.90;;;;;;4994001;28;20128;-88
2022/01/03 02:08:24;;;;;;;25.27;3.55;;;10.30;99.90;;;;;;4994230;28;20050;-88
2022/01/03 02:10:57;;;;;;;16.27;3.28;;;10.30;99.90;;;;;;4994489;28;20534;-88
2022/01/03 02:13:25;;;;;;;19.83;3.80;;;10.40;99.90;;;;;;4994072;28;20047;-88
2022/01/03 02:15:58;;;;;;;15.75;2.95;;;10.30;99.90;;;;;;4993134;28;20555;-88
2022/01/03 02:18:25;;;;;;;17.40;3.35;;;10.30;99.90;;;;;;5008707;28;20080;-88
2022/01/03 02:20:51;;;;;;;16.80;3.35;;;10.30;99.90;;;;;;5009145;28;20499;-88
2022/01/03 02:23:17;;;;;;;19.73;4.35;;;10.30;99.90;;;;;;5009033;28;20041;-88
2022/01/03 02:25:43;;;;;;;17.13;3.47;;;10.30;99.90;;;;;;4975068;28;20042;-88
2022/01/03 02:28:08;;;;;;;16.80;3.25;;;10.30;99.90;;;;;;4992015;28;20654;-88
2022/01/03 02:30:35;;;;;;;16.83;3.00;;;10.20;99.90;;;;;;4991108;28;20045;-88
2022/01/03 02:33:02;;;;;;;16.35;3.60;;;10.20;99.90;;;;;;4978385;28;20674;-88
2022/01/03 02:35:28;;;;;;;13.82;2.75;;;10.20;99.90;;;;;;5026268;28;20069;-88
2022/01/03 02:37:54;;;;;;;19.05;3.42;;;10.20;99.90;;;;;;4994375;28;20124;-88
2022/01/03 02:40:21;;;;;;;21.52;4.65;;;10.10;99.90;;;;;;4992384;28;20468;-87
2022/01/03 02:42:48;;;;;;;17.83;3.78;;;10.10;99.90;;;;;;5010206;28;20045;-88
2022/01/03 02:45:17;;;;;;;20.40;4.82;;;10.10;99.90;;;;;;5009657;28;20045;-88
2022/01/03 02:47:47;;;;;;;17.15;3.00;;;10.00;99.90;;;;;;4993695;28;20086;-88
2022/01/03 02:50:15;;;;;;;19.70;3.35;;;10.10;99.90;;;;;;4999054;28;20046;-88
2022/01/03 02:52:41;;;;;;;17.48;3.25;;;10.10;99.90;;;;;;4974021;28;20085;-89
2022/01/03 02:55:08;;;;;;;22.08;4.25;;;10.00;99.90;;;;;;4999203;28;20042;-89
2022/01/03 02:57:39;;;;;;;23.63;3.33;;;10.00;99.90;;;;;;4990869;28;20050;-89
2022/01/03 03:00:08;;;;;;;21.90;4.10;;;9.90;99.90;;;;;;4996190;28;20076;-89
2022/01/03 03:02:33;;;;;;;20.05;4.18;;;9.90;99.90;;;;;;4993520;28;20041;-88
2022/01/03 03:05:01;;;;;;;16.10;3.00;;;9.90;99.90;;;;;;5007855;28;20033;-88
2022/01/03 03:07:28;;;;;;;20.85;3.55;;;9.90;99.90;;;;;;4993246;28;20045;-89
2022/01/03 03:09:55;;;;;;;25.20;4.70;;;9.80;99.90;;;;;;5006069;28;20041;-88
2022/01/03 03:12:22;;;;;;;19.90;3.67;;;9.80;99.90;;;;;;5007875;28;20085;-89
2022/01/03 03:14:48;;;;;;;18.52;3.97;;;9.80;99.90;;;;;;4991626;28;20073;-88
2022/01/03 03:17:18;;;;;;;18.20;3.58;;;9.80;99.90;;;;;;4993409;28;20046;-88
2022/01/03 03:19:50;;;;;;;19.67;4.00;;;9.90;99.90;;;;;;4992926;28;20048;-88
2022/01/03 03:22:15;;;;;;;20.23;3.78;;;9.90;99.90;;;;;;4990262;28;20105;-88
2022/01/03 03:24:41;;;;;;;21.10;4.15;;;9.90;99.90;;;;;;5018843;28;20042;-88
2022/01/03 03:27:11;;;;;;;18.88;4.05;;;9.90;99.90;;;;;;5011902;28;20042;-88
2022/01/03 03:29:46;;;;;;;18.95;3.40;;;9.90;99.90;;;;;;5011763;28;20037;-88
2022/01/03 03:32:12;;;;;;;18.35;3.47;;;9.80;99.90;;;;;;5016087;28;20038;-88
2022/01/03 03:34:37;;;;;;;19.30;3.58;;;9.90;99.90;;;;;;5009662;28;20491;-88
2022/01/03 03:37:04;;;;;;;22.23;5.05;;;9.80;99.90;;;;;;4993002;28;20686;-89
2022/01/03 03:39:31;;;;;;;20.45;3.85;;;9.80;99.90;;;;;;4993484;28;20046;-88
2022/01/03 03:41:57;;;;;;;20.52;3.88;;;9.80;99.90;;;;;;5000949;28;20100;-88
2022/01/03 03:44:22;;;;;;;18.85;3.42;;;9.90;99.90;;;;;;4989867;28;20042;-88
2022/01/03 03:46:48;;;;;;;22.67;4.65;;;9.80;99.90;;;;;;4974587;28;20042;-88
2022/01/03 03:49:13;;;;;;;19.77;3.88;;;9.80;99.90;;;;;;5001012;28;20084;-89
2022/01/03 03:51:39;;;;;;;19.25;4.03;;;9.80;99.90;;;;;;4993907;28;20042;-89
2022/01/03 03:54:05;;;;;;;21.95;3.97;;;9.80;99.90;;;;;;5004135;28;20065;-88
2022/01/03 03:56:31;;;;;;;20.60;4.05;;;9.80;99.90;;;;;;4993227;28;20033;-89
2022/01/03 03:58:56;;;;;;;20.55;4.53;;;9.80;99.90;;;;;;4992587;28;20710;-89
2022/01/03 04:01:23;;;;;;;20.52;4.15;;;9.80;99.90;;;;;;4993230;28;20132;-89
2022/01/03 04:03:49;;;;;;;21.77;3.72;;;9.80;99.90;;;;;;4989565;28;20041;-89
2022/01/03 04:06:14;;;;;;;24.25;3.90;;;9.90;99.90;;;;;;5012065;28;20137;-89
2022/01/03 04:08:40;;;;;;;20.50;4.15;;;9.90;99.90;;;;;;4995364;28;20034;-88
2022/01/03 04:11:05;;;;;;;22.75;5.13;;;9.90;99.90;;;;;;5029736;28;20038;-88
2022/01/03 04:13:31;;;;;;;17.80;3.53;;;9.90;99.90;;;;;;4989626;28;20508;-89
2022/01/03 04:15:56;;;;;;;19.25;4.00;;;9.90;99.90;;;;;;5012027;28;20038;-89
2022/01/03 04:18:22;;;;;;;22.15;4.13;;;9.90;99.90;;;;;;4996682;28;20064;-88
2022/01/03 04:20:48;;;;;;;19.30;4.05;;;9.90;99.90;;;;;;4995778;28;20499;-88
2022/01/03 04:23:15;;;;;;;22.92;4.35;;;9.90;99.90;;;;;;4996182;28;20088;-88
2022/01/03 04:25:41;;;;;;;15.23;3.15;;;9.90;99.90;;;;;;5006252;28;20053;-89
2022/01/03 04:28:07;;;;;;;20.13;4.85;;;9.90;99.90;;;;;;5012293;28;20038;-88
2022/01/03 04:30:32;;;;;;;22.63;4.72;;;10.00;99.90;;;;;;5012378;28;20034;-88
2022/01/03 04:32:58;;;;;;;23.15;4.82;;;10.00;99.90;;;;;;4996444;28;20073;-88
2022/01/03 04:35:24;;;;;;;19.38;4.13;;;9.90;99.90;;;;;;5027255;28;20037;-88
2022/01/03 04:37:50;;;;;;;19.88;4.13;;;10.00;99.90;;;;;;5012876;28;20066;-88
2022/01/03 04:40:15;;;;;;;24.02;4.32;;;9.90;99.90;;;;;;5007232;28;20042;-88
2022/01/03 04:42:41;;;;;;;23.60;4.78;;;9.90;99.90;;;;;;4993075;28;20131;-88
2022/01/03 04:45:07;;;;;;;16.17;3.38;;;9.90;99.90;;;;;;5028871;28;20128;-88
2022/01/03 04:47:33;;;;;;;24.35;4.88;;;9.90;99.90;;;;;;5010679;28;20041;-88
2022/01/03 04:49:58;;;;;;;20.45;4.00;;;9.90;99.90;;;;;;4995565;28;20037;-88
2022/01/03 04:52:24;;;;;;;24.98;4.00;;;9.90;99.90;;;;;;4995909;28;20147;-88
2022/01/03 04:54:49;;;;;;;21.17;4.22;;;10.00;99.90;;;;;;5012007;28;20108;-88
2022/01/03 04:57:15;;;;;;;23.77;4.78;;;10.00;99.90;;;;;;4999654;28;20049;-88
2022/01/03 04:59:40;;;;;;;25.55;4.57;;;10.00;99.90;;;;;;4992758;28;20120;-88
2022/01/03 05:02:06;;;;;;;22.67;3.85;;;10.00;99.90;;;;;;4992234;28;20082;-88
2022/01/03 05:04:32;;;;;;;23.77;4.70;;;10.00;99.90;;;;;;4990064;28;20046;-88
2022/01/03 05:06:58;;;;;;;23.65;4.35;;;10.00;99.90;;;;;;4995527;28;20523;-88
2022/01/03 05:09:23;;;;;;;21.88;4.05;;;10.00;99.90;;;;;;5011861;28;20092;-89
2022/01/03 05:11:49;;;;;;;22.70;5.32;;;10.00;99.90;;;;;;4995474;28;20034;-88
2022/01/03 05:14:14;;;;;;;26.50;4.88;;;10.00;99.90;;;;;;5009190;28;20050;-88
2022/01/03 05:16:40;;;;;;;23.20;4.00;;;10.00;99.90;;;;;;5011997;28;20034;-89
2022/01/03 05:19:06;;;;;;;25.60;4.47;;;10.00;99.90;;;;;;5010985;28;20046;-89
2022/01/03 05:21:31;;;;;;;24.08;5.10;;;10.00;99.90;;;;;;5003819;28;20045;-88
2022/01/03 05:23:57;;;;;;;26.52;5.00;;;10.00;99.90;;;;;;4996760;28;20042;-88
2022/01/03 05:26:22;;;;;;;26.30;4.40;;;10.00;99.90;;;;;;5011677;28;20073;-88
2022/01/03 05:28:48;;;;;;;21.60;4.38;;;10.00;99.90;;;;;;5027672;28;20513;-88
2022/01/03 05:31:14;;;;;;;24.65;4.63;;;10.00;99.90;;;;;;5011575;28;20034;-88
2022/01/03 05:33:40;;;;;;;21.35;4.65;;;10.00;99.90;;;;;;5009144;28;20148;-88
2022/01/03 05:36:06;;;;;;;21.35;4.53;;;10.00;99.90;;;;;;4991806;28;20043;-88
2022/01/03 05:38:32;;;;;;;25.48;4.75;;;10.00;99.90;;;;;;4991945;28;20046;-88
2022/01/03 05:40:58;;;;;;;28.85;5.05;;;10.00;99.90;;;;;;4988553;28;20045;-88
2022/01/03 05:43:23;;;;;;;22.63;4.38;;;9.90;99.90;;;;;;4991540;28;20058;-88
2022/01/03 05:45:49;;;;;;;25.98;4.25;;;9.90;99.90;;;;;;5006437;28;20380;-88
2022/01/03 05:48:14;;;;;;;23.13;4.43;;;9.90;99.90;;;;;;4994697;28;20078;-88
2022/01/03 05:50:40;;;;;;;27.90;5.68;;;9.90;99.90;;;;;;5003032;28;20133;-89
2022/01/03 05:53:05;;;;;;;24.80;4.90;;;9.80;99.90;;;;;;4975044;28;20050;-88
2022/01/03 05:55:31;;;;;;;23.33;4.55;;;9.80;99.90;;;;;;4994397;28;20045;-88
2022/01/03 05:57:57;;;;;;;22.73;4.80;;;9.80;99.90;;;;;;4991189;28;20048;-88
2022/01/03 06:00:25;;;;;;;25.42;4.82;;;9.80;99.90;;;;;;4977612;28;20046;-88
2022/01/03 06:02:57;;;;;;;23.58;4.40;;;9.80;99.90;;;;;;4990063;28;20054;-88
2022/01/03 06:07:58;;;;;;;26.65;5.45;;;9.70;99.90;;;;;;4993124;28;20073;-88
2022/01/03 06:10:24;;;;;;;29.90;5.03;;;9.70;99.90;;;;;;4991081;28;20057;-88
2022/01/03 06:12:49;;;;;;;26.02;5.65;;;9.60;99.90;;;;;;5005453;28;20034;-89
2022/01/03 06:15:15;;;;;;;21.75;4.72;;;9.60;99.90;;;;;;4984239;28;20431;-89
2022/01/03 06:17:42;;;;;;;28.50;5.72;;;9.60;99.90;;;;;;5002891;28;20046;-89
2022/01/03 06:20:08;;;;;;;25.15;5.00;;;9.50;99.90;;;;;;4992411;28;20438;-89
2022/01/03 06:22:34;;;;;;;27.10;5.90;;;9.50;99.90;;;;;;5010326;28;20104;-88
2022/01/03 06:24:59;;;;;;;24.42;4.88;;;9.60;99.90;;;;;;4991921;28;20491;-89
2022/01/03 06:27:25;;;;;;;24.52;4.28;;;9.60;99.90;;;;;;4991671;28;20078;-89
2022/01/03 06:29:51;;;;;;;31.27;5.97;;;9.50;99.90;;;;;;4990820;28;20034;-90
2022/01/03 06:32:16;;;;;;;26.90;5.10;;;9.60;99.90;;;;;;4981019;28;20045;-88
2022/01/03 06:34:42;;;;;;;29.38;5.85;;;9.60;99.90;;;;;;5026574;28;20464;-88
2022/01/03 06:37:07;;;;;;;28.70;5.82;;;9.50;99.90;;;;;;4994011;28;20041;-87
2022/01/03 06:39:33;;;;;;;29.08;6.30;;;9.50;99.90;;;;;;5008927;28;20415;-88
2022/01/03 06:41:58;;;;;;;26.05;5.40;;;9.50;99.90;;;;;;4994255;28;20042;-89
2022/01/03 06:44:24;;;;;;;24.02;5.30;;;9.60;99.90;;;;;;4993662;28;20463;-90
2022/01/03 06:46:50;;;;;;;24.48;5.25;;;9.50;99.90;;;;;;4990957;28;20073;-89
2022/01/03 06:49:15;;;;;;;27.27;5.68;;;9.50;99.90;;;;;;4984818;28;20559;-88
2022/01/03 06:51:41;;;;;;;26.77;4.78;;;9.50;99.90;;;;;;4990675;28;20038;-88
2022/01/03 06:54:11;;;;;;;23.90;4.75;;;9.50;99.90;;;;;;4991516;28;20096;-89
2022/01/03 06:56:37;;;;;;;26.88;4.97;;;9.50;99.90;;;;;;5010155;28;20046;-89
2022/01/03 06:59:03;;;;;;;28.30;5.05;;;9.50;99.90;;;;;;4992715;28;20171;-89
2022/01/03 07:01:29;;;;;;;30.30;4.95;;;9.40;99.90;;;;;;5009791;28;20080;-89
2022/01/03 07:03:55;;;;;;;32.70;6.18;;;9.50;99.90;;;;;;4984777;28;20077;-89
2022/01/03 07:06:20;;;;;;;26.42;6.05;;;9.50;99.90;;;;;;5009945;28;20048;-89
2022/01/03 07:08:46;;;;;;;27.27;6.20;;;9.60;99.90;;;;;;4996477;28;20447;-89
2022/01/03 07:11:12;;;;;;;27.48;6.55;;;9.60;99.90;;;;;;4989886;28;20045;-89
2022/01/03 07:13:44;;;;;;;29.02;5.88;;;9.70;99.90;;;;;;5026076;28;20042;-89
2022/01/03 07:18:59;;;;;;;28.23;5.75;;;9.70;99.90;;;;;;4990306;28;20129;-89
2022/01/03 07:21:29;;;;;;;30.90;6.13;;;9.70;99.90;;;;;;4977331;28;20048;-89
2022/01/03 07:23:55;;;;;;;32.22;5.60;;;9.80;99.90;;;;;;4993354;28;20430;-89
2022/01/03 07:26:22;;;;;;;31.60;4.95;;;9.80;99.90;;;;;;5008098;28;20050;-89
2022/01/03 07:28:47;;;;;;;30.52;5.45;;;9.80;99.90;;;;;;5009648;28;20038;-89
2022/01/03 07:31:14;;;;;;;34.50;6.22;;;9.90;99.90;;;;;;4993253;28;20177;-89
2022/01/03 07:33:39;;;;;;;30.02;5.85;;;9.90;99.90;;;;;;5026125;28;20483;-89
2022/01/03 07:36:05;;;;;;;33.80;6.55;;;9.90;99.90;;;;;;5024464;28;20034;-88
2022/01/03 07:38:30;;;;;;;31.48;5.93;;;10.00;99.90;;;;;;4995434;28;20578;-89
2022/01/03 07:40:57;;;;;;;26.83;6.03;;;9.90;99.90;;;;;;4996996;28;20116;-89
2022/01/03 07:43:22;;;;;;;31.27;5.38;;;10.00;99.90;;;;;;4996708;28;20053;-89
2022/01/03 07:45:48;;;;;;;31.05;6.10;;;10.00;99.90;;;;;;5011889;28;20042;-89
2022/01/03 07:48:14;;;;;;;24.25;5.03;;;10.00;99.90;;;;;;4996089;28;20040;-90
2022/01/03 07:50:39;;;;;;;27.85;6.03;;;10.10;99.90;;;;;;5013478;28;20041;-89
2022/01/03 07:53:05;;;;;;;26.27;6.80;;;10.10;99.90;;;;;;5013100;28;20034;-89
2022/01/03 07:55:31;;;;;;;28.83;5.85;;;10.10;99.90;;;;;;5012975;28;20527;-89
2022/01/03 07:57:56;;;;;;;24.33;5.32;;;10.10;99.90;;;;;;4995908;28;20084;-89
2022/01/03 08:00:22;;;;;;;24.23;5.30;;;10.20;99.90;;;;;;5029789;28;20038;-89
2022/01/03 08:02:48;;;;;;;29.42;4.93;;;10.20;99.90;;;;;;5029195;28;20165;-88
2022/01/03 08:05:14;;;;;;;26.95;6.32;;;10.20;99.90;;;;;;5013149;28;20123;-88
2022/01/03 08:07:41;;;;;;;30.63;5.90;;;10.20;99.90;;;;;;4994818;28;20046;-89
2022/01/03 08:10:08;;;;;;;28.77;5.65;;;10.20;99.90;;;;;;4997197;28;20507;-88
2022/01/03 08:12:34;;;;;;;26.40;4.85;;;10.30;99.90;;;;;;5029845;28;20061;-89
2022/01/03 08:15:00;;;;;;;30.27;5.90;;;10.30;99.90;;;;;;5012702;28;20076;-88
2022/01/03 08:17:26;;;;;;;25.40;5.07;;;10.30;99.90;;;;;;4995072;28;20088;-88
2022/01/03 08:19:52;;;;;;;30.88;6.05;;;10.30;99.90;;;;;;5011892;28;20048;-88
2022/01/03 08:22:18;;;;;;;25.77;5.47;;;10.30;99.90;;;;;;5012756;28;20042;-88
2022/01/03 08:24:46;;;;;;;39.50;6.05;;;10.30;99.90;;;;;;4995666;28;20056;-88
2022/01/03 08:27:12;;;;;;;29.35;5.43;;;10.40;99.90;;;;;;5029317;28;20081;-88
2022/01/03 08:29:38;;;;;;;23.90;5.00;;;10.40;99.90;;;;;;4994716;28;20093;-88
2022/01/03 08:32:04;;;;;;;22.02;4.80;;;10.40;99.90;;;;;;5012059;28;20033;-89
2022/01/03 08:34:30;;;;;;;25.20;5.50;;;10.40;99.90;;;;;;4996158;28;20607;-88
2022/01/03 08:36:56;;;;;;;24.02;5.10;;;10.40;99.90;;;;;;4995897;28;20560;-87
2022/01/03 08:39:22;;;;;;;26.30;5.50;;;10.40;99.90;;;;;;4994829;28;20042;-88
2022/01/03 08:41:47;;;;;;;24.73;5.18;;;10.40;99.90;;;;;;4996514;28;20087;-88
2022/01/03 08:44:13;;;;;;;20.33;4.10;;;10.50;99.90;;;;;;5011858;28;21308;-88
2022/01/03 08:46:39;;;;;;;25.42;5.00;;;10.40;99.90;;;;;;5010332;28;20049;-89
2022/01/03 08:49:06;;;;;;;24.02;5.20;;;10.40;99.90;;;;;;5012678;28;20045;-88
2022/01/03 08:51:31;;;;;;;23.02;4.65;;;10.50;99.90;;;;;;5012578;28;20034;-89
2022/01/03 08:53:57;;;;;;;26.52;5.72;;;10.50;99.90;;;;;;5014644;28;20041;-88
2022/01/03 08:56:23;;;;;;;25.88;4.95;;;10.50;99.90;;;;;;4984097;28;20475;-88
2022/01/03 08:58:49;;;;;;;21.60;4.75;;;10.50;99.90;;;;;;4976472;28;20034;-88
2022/01/03 09:01:15;;;;;;;26.55;5.00;;;10.50;99.90;;;;;;4988975;28;20569;-88
2022/01/03 09:03:41;;;;;;;25.08;5.68;;;10.50;99.90;;;;;;4994993;28;20052;-88
2022/01/03 09:06:06;;;;;;;25.15;4.97;;;10.50;99.90;;;;;;4993848;28;20073;-88
2022/01/03 09:08:32;;;;;;;24.85;5.10;;;10.50;99.90;;;;;;4993924;28;20469;-88
2022/01/03 09:10:58;;;;;;;25.42;5.88;;;10.50;99.90;;;;;;5004542;28;20030;-88
2022/01/03 09:13:24;;;;;;;23.63;5.18;;;10.60;99.90;;;;;;4992454;28;20096;-88
2022/01/03 09:15:50;;;;;;;28.48;5.55;;;10.60;99.90;;;;;;5002655;28;20044;-88
2022/01/03 09:18:19;;;;;;;19.75;4.20;;;10.60;99.90;;;;;;5011948;28;20046;-88
2022/01/03 09:20:45;;;;;;;24.10;4.80;;;10.60;99.90;;;;;;4994695;28;20125;-88
2022/01/03 09:23:17;;;;;;;21.40;5.07;;;10.70;99.90;;;;;;4999447;28;20033;-88
2022/01/03 09:30:55;;;;;;;30.42;5.63;;;10.70;99.90;;;;;;5010244;28;20041;-88
2022/01/03 09:33:20;;;;;;;28.88;5.05;;;10.70;99.90;;;;;;4992189;28;20046;-88
2022/01/03 09:35:46;;;;;;;26.98;5.22;;;10.60;99.90;;;;;;4976637;28;20042;-88
2022/01/03 09:38:12;;;;;;;21.25;4.80;;;10.60;99.90;;;;;;5011568;28;20037;-88
2022/01/03 09:40:40;;;;;;;24.15;5.18;;;10.60;99.90;;;;;;5011271;28;20499;-88
2022/01/03 09:43:08;;;;;;;23.25;5.35;;;10.70;99.90;;;;;;5015151;28;20037;-87
2022/01/03 09:45:37;;;;;;;25.38;4.93;;;10.60;99.90;;;;;;4994514;28;20038;-88
2022/01/03 09:48:04;;;;;;;23.90;5.00;;;10.60;99.90;;;;;;5011242;28;20046;-88
2022/01/03 09:50:33;;;;;;;24.70;4.78;;;10.70;99.90;;;;;;5011334;28;20048;-88
2022/01/03 09:53:01;;;;;;;26.73;5.03;;;10.60;99.90;;;;;;5009420;28;20048;-88
2022/01/03 09:55:29;;;;;;;25.63;5.18;;;10.60;99.90;;;;;;5010747;28;20748;-89
2022/01/03 09:57:55;;;;;;;22.05;4.32;;;10.70;99.90;;;;;;5010676;28;20077;-89
2022/01/03 10:00:24;;;;;;;22.02;5.18;;;10.60;99.90;;;;;;5011120;28;20042;-89
2022/01/03 10:02:51;;;;;;;21.67;4.57;;;10.70;99.90;;;;;;5008876;28;20515;-88
2022/01/03 10:05:17;;;;;;;19.98;5.15;;;10.60;99.90;;;;;;4994697;28;20053;-88
2022/01/03 10:07:43;;;;;;;26.48;5.20;;;10.60;99.90;;;;;;4983129;28;20040;-89
2022/01/03 10:10:09;;;;;;;26.73;5.20;;;10.70;99.90;;;;;;4975081;28;20419;-89
2022/01/03 10:12:36;;;;;;;23.52;4.47;;;10.60;99.90;;;;;;4976753;28;20124;-88
2022/01/03 10:15:04;;;;;;;20.15;4.28;;;10.70;99.90;;;;;;5008618;28;20044;-89
2022/01/03 10:17:37;;;;;;;24.90;5.00;;;10.70;99.90;;;;;;5010209;28;20511;-89
2022/01/03 10:20:04;;;;;;;26.08;4.65;;;10.70;99.90;;;;;;5009791;28;20053;-88
2022/01/03 10:22:34;;;;;;;20.20;4.68;;;10.70;99.90;;;;;;4989396;28;20056;-87
2022/01/03 10:25:08;;;;;;;22.92;5.20;;;10.70;99.90;;;;;;4992140;28;20125;-87
2022/01/03 10:27:47;;;;;;;22.45;4.38;;;10.70;99.90;;;;;;5010277;28;20104;-88
2022/01/03 10:30:13;;;;;;;24.25;5.10;;;10.70;99.90;;;;;;4993842;28;20415;-88
2022/01/03 10:32:40;;;;;;;23.73;5.15;;;10.60;99.90;;;;;;4994532;28;20046;-88
2022/01/03 10:35:17;;;;;;;24.80;5.68;;;10.70;99.90;;;;;;5023803;28;20145;-88
2022/01/03 10:37:44;;;;;;;23.15;5.28;;;10.70;99.90;;;;;;4994436;28;20128;-89
2022/01/03 10:40:34;;;;;;;23.92;4.80;;;10.80;99.90;;;;;;4986531;28;20046;-89
2022/01/03 10:43:33;;;;;;;28.40;5.88;;;10.80;99.90;;;;;;5003380;28;20173;-88
2022/01/03 10:45:59;;;;;;;23.55;4.93;;;10.80;99.90;;;;;;4983330;28;20085;-89
2022/01/03 10:48:32;;;;;;;21.48;4.38;;;10.90;99.90;;;;;;4998642;28;20131;-89
2022/01/03 10:51:00;;;;;;;20.83;4.85;;;10.90;99.90;;;;;;5008874;28;20491;-89
2022/01/03 10:53:35;;;;;;;22.17;5.10;;;11.00;99.90;;;;;;4989288;28;20035;-89
2022/01/03 10:56:38;;;;;;;24.08;5.13;;;11.00;99.90;;;;;;4992658;28;20164;-89
2022/01/03 10:59:21;;;;;;;19.05;4.53;;;10.90;99.90;;;;;;4993489;28;20038;-88
2022/01/03 11:02:01;;;;;;;25.00;6.18;;;11.00;99.90;;;;;;5026825;28;20045;-89
2022/01/03 11:04:28;;;;;;;27.60;5.50;;;11.00;99.90;;;;;;4990632;28;20037;-89
2022/01/03 11:13:09;;;;;;;25.50;4.75;;;11.10;99.90;;;;;;4997929;28;20081;-88
2022/01/03 11:15:40;;;;;;;24.00;5.03;;;11.10;99.90;;;;;;4999902;28;20041;-88
2022/01/03 11:18:28;;;;;;;23.77;5.00;;;11.20;99.90;;;;;;5016431;28;20065;-88
2022/01/03 11:21:16;;;;;;;26.67;5.20;;;11.30;99.90;;;;;;5016152;28;20041;-88
2022/01/03 11:23:59;;;;;;;24.75;5.32;;;11.30;99.90;;;;;;4997460;28;20088;-88
2022/01/03 11:26:26;;;;;;;23.95;5.40;;;11.20;99.90;;;;;;4996507;28;20046;-88
2022/01/03 11:28:52;;;;;;;23.30;4.78;;;11.20;99.90;;;;;;4982459;28;20048;-89
2022/01/03 11:31:20;;;;;;;26.55;5.60;;;11.20;99.90;;;;;;5000446;28;20128;-89
2022/01/03 11:33:48;;;;;;;21.73;4.80;;;11.20;99.90;;;;;;4998955;28;20512;-88
2022/01/03 11:36:15;;;;;;;21.23;5.10;;;11.20;99.90;;;;;;5014213;28;20034;-89
2022/01/03 11:38:41;;;;;;;20.65;4.68;;;11.20;99.90;;;;;;5008546;28;20503;-88
2022/01/03 11:41:09;;;;;;;22.23;5.13;;;11.30;99.90;;;;;;4996911;28;20046;-88
2022/01/03 11:43:40;;;;;;;24.67;4.72;;;11.30;99.90;;;;;;4996422;28;20162;-88
2022/01/03 11:46:07;;;;;;;22.30;5.00;;;11.40;99.90;;;;;;5009037;28;20041;-88
2022/01/03 11:48:34;;;;;;;23.52;5.30;;;11.40;99.90;;;;;;4994711;28;20035;-88
2022/01/03 11:51:09;;;;;;;25.65;5.25;;;11.30;99.90;;;;;;5012873;28;20050;-88
2022/01/03 11:53:41;;;;;;;20.30;4.97;;;11.30;99.90;;;;;;4981271;28;20079;-88
2022/01/03 11:56:10;;;;;;;22.38;5.60;;;11.40;99.90;;;;;;4999889;28;20042;-88
2022/01/03 12:04:14;;;;;;;23.35;6.35;;;11.70;99.90;;;;;;4983438;28;20042;-88
2022/01/03 12:06:42;;;;;;;21.77;4.97;;;11.90;99.90;;;;;;4998136;28;20073;-89
2022/01/03 12:09:13;;;;;;;20.05;5.07;;;12.20;99.90;;;;;;4999859;28;20081;-89
2022/01/03 12:11:53;;;;;;;21.20;4.63;;;12.70;99.90;;;;;;4997034;28;20494;-88
2022/01/03 12:14:19;;;;;;;26.05;5.20;;;12.90;99.90;;;;;;4980119;28;20089;-88
2022/01/03 12:16:52;;;;;;;25.67;5.18;;;12.90;99.90;;;;;;4998916;28;20045;-88
2022/01/03 12:19:39;;;;;;;25.60;5.25;;;13.00;99.90;;;;;;5013737;28;20088;-88
2022/01/03 12:22:19;;;;;;;19.55;4.28;;;13.00;99.90;;;;;;5015362;28;20076;-88
2022/01/03 12:25:03;;;;;;;21.13;5.03;;;12.80;99.90;;;;;;5010845;28;20049;-88
2022/01/03 12:27:39;;;;;;;21.15;5.38;;;12.90;99.90;;;;;;4994815;28;20049;-88
2022/01/03 12:30:07;;;;;;;27.98;5.65;;;12.90;99.30;;;;;;5012138;28;20030;-88
2022/01/03 12:32:36;;;;;;;21.83;5.25;;;12.80;99.50;;;;;;4994818;28;20521;-88
2022/01/03 12:35:12;;;;;;;23.73;5.47;;;12.90;99.70;;;;;;5010769;28;20455;-89
2022/01/03 12:37:47;;;;;;;24.13;5.45;;;12.80;99.00;;;;;;5011158;28;20419;-88
2022/01/03 12:40:18;;;;;;;19.35;4.78;;;12.80;99.50;;;;;;4993299;28;20149;-88
2022/01/03 12:42:53;;;;;;;26.77;5.70;;;13.10;99.60;;;;;;4994895;28;20484;-88
2022/01/03 12:45:32;;;;;;;24.20;5.78;;;13.70;99.10;;;;;;4995816;28;20046;-88
2022/01/03 12:48:10;;;;;;;24.88;5.50;;;14.30;96.70;;;;;;4995695;28;20123;-89
2022/01/03 12:50:52;;;;;;;21.13;5.10;;;14.80;94.80;;;;;;4988620;28;20033;-89
2022/01/03 12:53:23;;;;;;;21.23;5.17;;;14.90;94.00;;;;;;4995397;28;20042;-89
2022/01/03 12:55:52;;;;;;;21.30;4.53;;;14.60;94.10;;;;;;4993760;28;20499;-89
2022/01/03 12:58:20;;;;;;;22.15;5.03;;;14.30;94.10;;;;;;4996180;28;20107;-88
2022/01/03 13:01:00;;;;;;;19.60;4.68;;;14.00;95.20;;;;;;4994319;28;20526;-89
2022/01/03 13:03:27;;;;;;;25.52;5.78;;;13.90;96.00;;;;;;4989550;28;20194;-90
2022/01/03 13:06:17;;;;;;;18.08;4.63;;;14.30;95.40;;;;;;4992637;28;20046;-90
2022/01/03 13:08:52;;;;;;;23.38;5.63;;;14.50;93.40;;;;;;4981189;28;20533;-89
2022/01/03 13:11:37;;;;;;;26.58;5.35;;;14.40;93.70;;;;;;4998726;28;20419;-90